Time;durP1;ratioP1;P1;durP2;ratioP2;P2;SDS_P1;SDS_P2;PMS_P1;PMS_P2;Temp;Humidity;BMP_temperature;BMP_pressure;BME280_temperature;BME280_humidity;BME280_pressure;Samples;Min_cycle;Max_cycle;Signal;HPM_P1;HPM_P2
2022/08/31 00:05:07;;;;;;;1.25;1.10;;;17.50;98.90;;;;;;5085411;28;20063;-73
2022/08/31 00:07:33;;;;;;;2.22;1.10;;;17.40;98.70;;;;;;5083634;28;20051;-73
2022/08/31 00:10:00;;;;;;;2.10;1.20;;;17.50;98.60;;;;;;5083045;28;20109;-73
2022/08/31 00:12:26;;;;;;;2.15;1.15;;;17.50;98.50;;;;;;5083525;28;20070;-73
2022/08/31 00:14:51;;;;;;;2.70;1.23;;;17.40;98.50;;;;;;5083395;28;20513;-73
2022/08/31 00:17:17;;;;;;;1.15;1.05;;;17.40;98.40;;;;;;5084365;28;20032;-73
2022/08/31 00:19:43;;;;;;;1.20;1.10;;;17.40;98.30;;;;;;5083549;28;20116;-73
2022/08/31 00:22:09;;;;;;;2.55;1.40;;;17.40;98.10;;;;;;5084209;28;20173;-73
2022/08/31 00:24:35;;;;;;;2.08;1.20;;;17.30;98.30;;;;;;5084570;28;20047;-73
2022/08/31 00:27:00;;;;;;;1.30;1.20;;;17.30;98.20;;;;;;5082595;28;20041;-73
2022/08/31 00:29:26;;;;;;;1.35;1.25;;;17.20;98.10;;;;;;5082797;28;20189;-73
2022/08/31 00:31:52;;;;;;;1.13;1.02;;;17.20;98.10;;;;;;5083386;28;20052;-73
2022/08/31 00:34:18;;;;;;;1.10;1.00;;;17.10;98.00;;;;;;5079550;28;20076;-73
2022/08/31 00:36:46;;;;;;;1.20;1.10;;;17.10;98.00;;;;;;5078301;28;20047;-73
2022/08/31 00:39:12;;;;;;;2.72;1.23;;;17.10;97.90;;;;;;5083222;28;20052;-73
2022/08/31 00:41:38;;;;;;;1.60;1.40;;;17.00;97.90;;;;;;5084555;28;20123;-73
2022/08/31 00:44:07;;;;;;;2.50;1.60;;;17.00;98.10;;;;;;5082537;28;20075;-73
2022/08/31 00:46:37;;;;;;;2.03;1.40;;;17.00;98.20;;;;;;5075940;28;20056;-73
2022/08/31 00:49:16;;;;;;;2.03;1.20;;;16.90;98.10;;;;;;5085151;28;20048;-73
2022/08/31 00:51:46;;;;;;;;;;;16.80;98.10;;;;;;5085687;28;20044;-73
2022/08/31 00:54:13;;;;;;;;;;;16.70;98.10;;;;;;5083651;28;19921;-73
2022/08/31 00:56:40;;;;;;;1.95;1.25;;;16.70;98.30;;;;;;5083683;28;19964;-73
2022/08/31 00:59:06;;;;;;;1.20;1.08;;;16.60;98.30;;;;;;5083821;28;20115;-73
2022/08/31 01:01:32;;;;;;;3.40;1.10;;;16.60;98.30;;;;;;5084657;28;20057;-73
2022/08/31 01:03:59;;;;;;;1.60;1.10;;;16.60;98.40;;;;;;5082866;28;20177;-73
2022/08/31 01:06:25;;;;;;;1.92;0.95;;;16.50;98.60;;;;;;5082992;28;20056;-73
2022/08/31 01:08:53;;;;;;;1.83;1.25;;;16.60;98.60;;;;;;5082496;28;20051;-73
2022/08/31 01:11:20;;;;;;;1.13;1.00;;;16.50;98.50;;;;;;5082596;28;20120;-73
2022/08/31 01:13:46;;;;;;;2.03;1.00;;;16.60;98.60;;;;;;5057686;28;20041;-73
2022/08/31 01:16:25;;;;;;;1.65;1.00;;;16.60;98.70;;;;;;5083607;28;20131;-73
2022/08/31 01:18:52;;;;;;;1.25;1.10;;;16.50;98.60;;;;;;5083628;28;20052;-73
2022/08/31 01:21:55;;;;;;;2.08;1.27;;;16.50;98.60;;;;;;5083999;28;20045;-73
2022/08/31 01:24:23;;;;;;;1.67;1.10;;;16.50;98.50;;;;;;5080910;28;20064;-73
2022/08/31 01:26:50;;;;;;;1.38;1.25;;;16.50;98.50;;;;;;5083655;28;20069;-73
2022/08/31 01:29:16;;;;;;;1.85;1.17;;;16.40;98.40;;;;;;5080478;28;20056;-73
2022/08/31 01:31:45;;;;;;;1.02;0.93;;;16.40;98.40;;;;;;5082179;28;20044;-73
2022/08/31 01:34:11;;;;;;;1.67;1.20;;;16.40;98.50;;;;;;5080886;28;20045;-73
2022/08/31 01:36:40;;;;;;;1.77;1.20;;;16.30;98.60;;;;;;5082593;28;20059;-73
2022/08/31 01:39:08;;;;;;;2.30;1.10;;;16.20;98.40;;;;;;5082124;28;20113;-73
2022/08/31 01:41:34;;;;;;;1.23;1.10;;;16.10;98.60;;;;;;5081976;28;20124;-73
2022/08/31 01:44:00;;;;;;;1.30;1.20;;;16.10;98.70;;;;;;5084212;28;20405;-73
2022/08/31 01:46:26;;;;;;;2.13;1.15;;;16.00;98.90;;;;;;5083290;28;20108;-73
2022/08/31 01:48:51;;;;;;;1.17;1.00;;;16.00;99.10;;;;;;5086947;28;20104;-73
2022/08/31 01:51:20;;;;;;;3.88;1.50;;;15.90;99.20;;;;;;5086199;28;20095;-73
2022/08/31 01:53:47;;;;;;;1.08;1.05;;;15.70;99.30;;;;;;5085877;28;20481;-73
2022/08/31 01:56:17;;;;;;;1.30;1.20;;;15.50;99.40;;;;;;5102858;28;20108;-73
2022/08/31 01:58:42;;;;;;;1.27;1.10;;;15.40;99.50;;;;;;5086622;28;20064;-73
2022/08/31 02:01:09;;;;;;;1.70;1.58;;;;;;;;;;5086495;28;20067;-73
2022/08/31 02:03:35;;;;;;;1.90;1.05;;;15.20;99.10;;;;;;5086580;28;20051;-73
2022/08/31 02:06:12;;;;;;;1.85;1.10;;;15.30;99.30;;;;;;5085733;28;20080;-73
2022/08/31 02:08:38;;;;;;;1.73;1.00;;;15.20;99.70;;;;;;5065061;28;20045;-73
2022/08/31 02:11:05;;;;;;;1.13;1.02;;;15.00;99.80;;;;;;5087226;28;20071;-73
2022/08/31 02:13:32;;;;;;;3.22;1.10;;;15.00;99.90;;;;;;5086519;28;20465;-73
2022/08/31 02:15:58;;;;;;;2.42;1.15;;;14.90;99.70;;;;;;5086201;28;20044;-73
2022/08/31 02:18:25;;;;;;;1.20;1.10;;;14.90;99.70;;;;;;5078698;28;20040;-73
2022/08/31 02:20:51;;;;;;;2.10;1.13;;;14.60;99.90;;;;;;5086454;28;20041;-73
2022/08/31 02:23:16;;;;;;;1.20;1.10;;;14.50;99.90;;;;;;5086598;28;20094;-73
2022/08/31 02:25:42;;;;;;;3.95;1.20;;;14.70;99.90;;;;;;5086095;28;20041;-73
2022/08/31 02:28:11;;;;;;;1.55;0.85;;;14.50;99.90;;;;;;5085482;28;20044;-73
2022/08/31 02:30:37;;;;;;;0.85;0.85;;;14.30;99.90;;;;;;5085180;28;20063;-73
2022/08/31 02:33:03;;;;;;;1.15;0.90;;;14.30;99.90;;;;;;5086060;28;20041;-73
2022/08/31 02:35:29;;;;;;;1.83;1.17;;;14.50;99.90;;;;;;5085328;28;20066;-73
2022/08/31 02:37:55;;;;;;;2.40;1.13;;;14.30;99.90;;;;;;5085120;28;20080;-73
2022/08/31 02:40:21;;;;;;;1.83;1.20;;;14.20;99.90;;;;;;5068956;28;20110;-73
2022/08/31 02:42:47;;;;;;;2.13;1.20;;;14.20;99.90;;;;;;5085800;28;20056;-73
2022/08/31 02:45:12;;;;;;;1.50;1.30;;;14.20;99.90;;;;;;5084980;28;20044;-73
2022/08/31 02:47:38;;;;;;;1.52;1.30;;;14.20;99.90;;;;;;5086595;28;20041;-73
2022/08/31 02:50:05;;;;;;;2.28;1.48;;;14.10;99.90;;;;;;5084973;28;20518;-73
2022/08/31 02:52:31;;;;;;;1.50;1.40;;;14.30;99.90;;;;;;5084868;28;20049;-73
2022/08/31 02:54:57;;;;;;;2.88;1.02;;;14.10;99.90;;;;;;5084587;28;20058;-73
2022/08/31 02:57:23;;;;;;;1.35;1.15;;;14.10;99.90;;;;;;5084881;28;20036;-73
2022/08/31 02:59:48;;;;;;;2.15;1.50;;;15.60;99.90;;;;;;5085065;28;20050;-73
2022/08/31 03:02:14;;;;;;;1.45;1.05;;;13.90;99.90;;;;;;5084721;28;20064;-73
2022/08/31 03:04:41;;;;;;;4.53;1.30;;;13.80;99.90;;;;;;5084292;28;20048;-73
2022/08/31 03:07:06;;;;;;;3.60;1.75;;;13.90;99.90;;;;;;5080249;28;20036;-73
2022/08/31 03:09:32;;;;;;;2.00;1.10;;;13.70;99.90;;;;;;5083230;28;20048;-73
2022/08/31 03:11:58;;;;;;;2.13;1.30;;;13.70;99.90;;;;;;5086775;28;20032;-73
2022/08/31 03:14:25;;;;;;;1.60;1.02;;;13.60;99.90;;;;;;5084539;28;20052;-73
2022/08/31 03:16:52;;;;;;;3.50;1.60;;;13.60;99.90;;;;;;5083896;28;20552;-73
2022/08/31 03:19:18;;;;;;;4.90;1.40;;;13.70;99.90;;;;;;5084840;28;20049;-73
2022/08/31 03:21:45;;;;;;;2.15;1.50;;;13.60;99.90;;;;;;5084283;28;20048;-73
2022/08/31 03:24:13;;;;;;;5.10;1.45;;;13.60;99.90;;;;;;5083930;28;20062;-73
2022/08/31 03:26:39;;;;;;;1.80;1.63;;;13.60;99.90;;;;;;5084463;28;20056;-73
2022/08/31 03:29:06;;;;;;;1.83;1.65;;;13.60;99.90;;;;;;5082658;28;20092;-73
2022/08/31 03:31:31;;;;;;;2.92;1.45;;;13.60;99.90;;;;;;5085191;28;20052;-73
2022/08/31 03:33:58;;;;;;;1.95;1.65;;;13.30;99.90;;;;;;5084888;28;20503;-73
2022/08/31 03:36:24;;;;;;;3.05;1.73;;;13.50;99.90;;;;;;5085064;28;20070;-73
2022/08/31 03:38:49;;;;;;;1.70;1.35;;;13.50;99.90;;;;;;5084205;28;20363;-73
2022/08/31 03:41:20;;;;;;;3.08;1.63;;;13.50;99.90;;;;;;5084427;28;20056;-73
2022/08/31 03:43:46;;;;;;;2.03;1.50;;;13.90;99.90;;;;;;5079614;28;20108;-73
2022/08/31 03:46:12;;;;;;;2.78;1.65;;;13.50;99.90;;;;;;5083194;28;20141;-73
2022/08/31 03:48:37;;;;;;;1.95;1.50;;;13.40;99.90;;;;;;5083991;28;20520;-73
2022/08/31 03:51:03;;;;;;;1.52;1.40;;;13.40;99.90;;;;;;5084817;28;20071;-73
2022/08/31 03:53:29;;;;;;;2.30;1.85;;;13.40;99.90;;;;;;5083997;28;20052;-73
2022/08/31 03:56:02;;;;;;;2.15;1.40;;;13.30;99.90;;;;;;5083195;28;20111;-73
2022/08/31 03:58:29;;;;;;;2.17;1.50;;;13.30;99.90;;;;;;5084538;28;20532;-73
2022/08/31 04:00:55;;;;;;;2.45;1.50;;;13.30;99.90;;;;;;5084698;28;20044;-73
2022/08/31 04:03:22;;;;;;;2.22;1.67;;;13.30;99.90;;;;;;5084773;28;20059;-73
2022/08/31 04:05:49;;;;;;;1.65;1.45;;;13.30;99.90;;;;;;5083912;28;20443;-73
2022/08/31 04:08:16;;;;;;;4.60;1.50;;;13.30;99.90;;;;;;5083442;28;20044;-73
2022/08/31 04:10:44;;;;;;;1.63;1.35;;;13.20;99.90;;;;;;5083227;28;20096;-73
2022/08/31 04:13:10;;;;;;;2.47;1.85;;;13.20;99.90;;;;;;5066889;28;20067;-73
2022/08/31 04:15:36;;;;;;;2.25;1.50;;;13.30;99.90;;;;;;5065668;28;20049;-73
2022/08/31 04:18:03;;;;;;;2.35;1.40;;;13.20;99.90;;;;;;5084042;28;20059;-73
2022/08/31 04:20:32;;;;;;;2.33;1.70;;;13.10;99.90;;;;;;5082977;28;20052;-73
2022/08/31 04:22:57;;;;;;;2.50;1.67;;;13.10;99.90;;;;;;5085030;28;20090;-73
2022/08/31 04:25:23;;;;;;;2.13;1.67;;;13.10;99.90;;;;;;5082374;28;20048;-73
2022/08/31 04:27:49;;;;;;;2.10;1.90;;;13.10;99.90;;;;;;5079861;28;20050;-73
2022/08/31 04:30:15;;;;;;;1.95;1.70;;;13.10;99.90;;;;;;5084174;28;20127;-73
2022/08/31 04:32:40;;;;;;;2.47;1.77;;;13.10;99.90;;;;;;5083458;28;20050;-73
2022/08/31 04:35:07;;;;;;;3.25;1.90;;;13.00;99.90;;;;;;5081953;28;20037;-73
2022/08/31 04:37:33;;;;;;;2.42;1.90;;;13.00;99.90;;;;;;5082976;28;20056;-73
2022/08/31 04:40:00;;;;;;;3.35;2.10;;;13.00;99.90;;;;;;5082893;28;20052;-73
2022/08/31 04:42:28;;;;;;;2.70;1.98;;;13.00;99.90;;;;;;5082920;28;20055;-73
2022/08/31 04:44:54;;;;;;;2.90;1.85;;;13.00;99.90;;;;;;5080202;28;20405;-73
2022/08/31 04:47:20;;;;;;;3.63;2.03;;;13.00;99.90;;;;;;5082571;28;20044;-73
2022/08/31 04:49:47;;;;;;;2.78;1.80;;;12.90;99.90;;;;;;5084223;28;20389;-73
2022/08/31 04:52:13;;;;;;;2.10;1.80;;;;;;;;;;5084252;28;20484;-73
2022/08/31 04:54:38;;;;;;;2.40;1.77;;;12.80;99.90;;;;;;5082856;28;20507;-73
2022/08/31 04:57:04;;;;;;;2.70;2.17;;;12.80;99.90;;;;;;5082635;28;20052;-73
2022/08/31 04:59:30;;;;;;;2.95;2.08;;;12.90;99.90;;;;;;5083765;28;20037;-73
2022/08/31 05:01:57;;;;;;;2.28;2.03;;;12.90;99.90;;;;;;5082589;28;20079;-73
2022/08/31 05:04:23;;;;;;;2.13;1.70;;;13.70;99.90;;;;;;5082630;28;20047;-73
2022/08/31 05:06:49;;;;;;;3.10;1.90;;;12.40;99.90;;;;;;5082574;28;20052;-73
2022/08/31 05:09:18;;;;;;;3.72;1.80;;;12.80;99.90;;;;;;5064079;28;20128;-73
2022/08/31 05:11:45;;;;;;;2.80;1.90;;;12.80;99.90;;;;;;5100218;28;20049;-73
2022/08/31 05:14:11;;;;;;;6.20;5.90;;;12.80;99.90;;;;;;5054341;28;20496;-74
2022/08/31 05:16:38;;;;;;;2.83;1.90;;;12.70;99.90;;;;;;5074060;28;20055;-73
2022/08/31 05:19:04;;;;;;;5.43;2.40;;;12.70;99.90;;;;;;5079954;28;20045;-71
2022/08/31 05:21:33;;;;;;;2.92;2.33;;;12.60;99.90;;;;;;5064286;28;20472;-70
2022/08/31 05:24:08;;;;;;;2.70;1.83;;;12.50;99.90;;;;;;5079773;28;20048;-71
2022/08/31 05:26:43;;;;;;;2.38;2.00;;;12.30;99.90;;;;;;5080001;28;20123;-71
2022/08/31 05:29:12;;;;;;;2.28;2.03;;;12.60;99.90;;;;;;5082573;28;20052;-70
2022/08/31 05:31:39;;;;;;;2.38;2.17;;;12.80;99.90;;;;;;5082152;28;20065;-70
2022/08/31 05:34:06;;;;;;;3.67;2.30;;;12.70;99.90;;;;;;5077974;28;21089;-69
2022/08/31 05:36:32;;;;;;;3.05;2.03;;;12.70;99.90;;;;;;5079752;28;20052;-70
2022/08/31 05:38:59;;;;;;;2.30;1.98;;;12.70;99.90;;;;;;5083165;28;20037;-70
2022/08/31 05:41:26;;;;;;;2.70;2.20;;;12.70;99.90;;;;;;5081554;28;20070;-70
2022/08/31 05:43:52;;;;;;;3.60;2.20;;;;;;;;;;5079737;28;20045;-71
2022/08/31 05:46:18;;;;;;;2.33;2.03;;;12.90;99.90;;;;;;5077705;28;20044;-70
2022/08/31 05:48:44;;;;;;;3.17;2.00;;;12.90;99.90;;;;;;5080210;28;20397;-70
2022/08/31 05:51:15;;;;;;;2.13;1.90;;;12.90;99.90;;;;;;5080562;28;20056;-68
2022/08/31 05:53:42;;;;;;;2.10;1.90;;;12.90;99.90;;;;;;5082381;28;20040;-72
2022/08/31 05:56:12;;;;;;;7.93;1.95;;;12.90;99.90;;;;;;5077201;28;20044;-72
2022/08/31 05:58:40;;;;;;;4.85;2.10;;;13.10;99.90;;;;;;5081198;28;20066;-77
2022/08/31 06:01:13;;;;;;;5.85;4.43;;;;;;;;;;5056613;28;20543;-74
2022/08/31 06:03:41;;;;;;;3.65;3.40;;;13.40;99.90;;;;;;4997379;28;20138;-75
2022/08/31 06:06:08;;;;;;;21.25;3.33;;;13.30;99.90;;;;;;5048023;28;20048;-67
2022/08/31 06:08:35;;;;;;;3.15;2.20;;;;;;;;;;5076485;28;20154;-67
2022/08/31 06:11:01;;;;;;;41.05;5.03;;;13.50;99.90;;;;;;5069657;28;20058;-68
2022/08/31 06:13:28;;;;;;;3.25;1.92;;;;;;;;;;5075917;28;20055;-68
2022/08/31 06:15:55;;;;;;;2.70;1.90;;;;;;;;;;5067787;28;20418;-67
2022/08/31 06:18:21;;;;;;;2.35;2.08;;;;;;;;;;5076907;28;20052;-68
2022/08/31 06:20:46;;;;;;;3.65;2.00;;;13.70;99.90;;;;;;5042841;28;20052;-68
2022/08/31 06:23:12;;;;;;;2.35;2.15;;;13.90;99.90;;;;;;5068900;28;20041;-67
2022/08/31 06:25:38;;;;;;;4.15;2.20;;;13.90;99.90;;;;;;5069598;28;20055;-72
2022/08/31 06:28:05;;;;;;;3.88;2.67;;;13.90;99.90;;;;;;5075932;28;20040;-73
2022/08/31 06:30:35;;;;;;;3.92;2.40;;;14.00;99.90;;;;;;5074113;28;20133;-73
2022/08/31 06:33:01;;;;;;;2.55;2.35;;;14.10;99.90;;;;;;5091048;28;20041;-68
2022/08/31 06:35:27;;;;;;;2.63;2.20;;;14.10;99.90;;;;;;5068863;28;20099;-73
2022/08/31 06:37:54;;;;;;;2.75;2.30;;;14.20;99.90;;;;;;5097411;28;20053;-73
2022/08/31 06:40:19;;;;;;;4.65;2.50;;;14.20;99.90;;;;;;5068957;28;20059;-73
2022/08/31 06:42:45;;;;;;;2.17;1.95;;;14.40;99.90;;;;;;5078550;28;20045;-72
2022/08/31 06:45:11;;;;;;;3.88;2.08;;;14.40;99.90;;;;;;5069502;28;20048;-73
2022/08/31 06:47:37;;;;;;;3.92;2.50;;;14.50;99.90;;;;;;5077456;28;20036;-73
2022/08/31 06:50:03;;;;;;;5.53;2.40;;;14.80;99.90;;;;;;5064903;28;20049;-72
2022/08/31 06:52:30;;;;;;;2.85;2.28;;;14.60;99.90;;;;;;5094004;28;20048;-73
2022/08/31 06:54:55;;;;;;;2.78;1.92;;;14.70;99.90;;;;;;5069342;28;20061;-73
2022/08/31 06:57:21;;;;;;;2.85;1.92;;;14.90;99.90;;;;;;5062613;28;20085;-73
2022/08/31 06:59:49;;;;;;;2.88;1.75;;;15.00;99.90;;;;;;5066547;28;20047;-73
2022/08/31 07:02:15;;;;;;;3.45;1.88;;;15.10;99.90;;;;;;5062795;28;20044;-73
2022/08/31 07:04:41;;;;;;;4.13;2.50;;;15.20;99.90;;;;;;5039829;28;20053;-73
2022/08/31 07:07:10;;;;;;;3.58;2.10;;;15.20;99.90;;;;;;5079389;28;20112;-72
2022/08/31 07:09:36;;;;;;;4.55;2.22;;;15.30;99.90;;;;;;5075122;28;20063;-72
2022/08/31 07:12:03;;;;;;;2.33;1.85;;;15.40;99.90;;;;;;5068920;28;20618;-72
2022/08/31 07:14:29;;;;;;;2.97;2.15;;;15.50;99.90;;;;;;5076617;28;20050;-73
2022/08/31 07:16:56;;;;;;;5.13;2.45;;;15.60;99.90;;;;;;5067661;28;20048;-72
2022/08/31 07:19:23;;;;;;;2.63;2.15;;;15.60;99.90;;;;;;5078130;28;20052;-71
2022/08/31 07:21:51;;;;;;;5.53;2.00;;;15.70;99.90;;;;;;5071179;28;20131;-72
2022/08/31 07:24:23;;;;;;;5.50;2.17;;;15.80;99.90;;;;;;5070888;28;20051;-72
2022/08/31 07:27:08;;;;;;;2.80;2.10;;;15.90;99.90;;;;;;5051819;28;20407;-72
2022/08/31 07:29:39;;;;;;;4.88;2.17;;;16.10;99.90;;;;;;5058887;28;20155;-74
2022/08/31 07:32:10;;;;;;;3.92;1.60;;;16.10;99.90;;;;;;5049375;28;20048;-74
2022/08/31 07:34:36;;;;;;;3.45;2.03;;;16.30;99.90;;;;;;5092019;28;20036;-74
2022/08/31 07:42:37;;;;;;;4.43;1.83;;;16.40;99.90;;;;;;5062834;28;20102;-74
2022/08/31 07:45:05;;;;;;;4.25;1.95;;;16.40;99.90;;;;;;5061510;28;20374;-75
2022/08/31 07:47:32;;;;;;;3.63;1.80;;;16.60;99.90;;;;;;5061669;28;20055;-72
2022/08/31 07:49:59;;;;;;;2.72;1.65;;;16.70;99.90;;;;;;5066352;28;20070;-73
2022/08/31 07:52:30;;;;;;;1.90;1.73;;;16.70;99.90;;;;;;5063708;28;20366;-72
2022/08/31 07:55:10;;;;;;;3.22;2.10;;;16.70;99.90;;;;;;5067236;28;20079;-72
2022/08/31 07:57:44;;;;;;;6.28;2.50;;;16.80;99.90;;;;;;5093573;28;20084;-71
2022/08/31 08:00:17;;;;;;;4.13;1.60;;;16.90;99.90;;;;;;5051692;28;20069;-73
2022/08/31 08:02:46;;;;;;;2.83;1.70;;;16.90;99.90;;;;;;5080457;28;20090;-72
2022/08/31 08:05:19;;;;;;;5.43;2.13;;;16.90;99.90;;;;;;5070274;28;20060;-73
2022/08/31 08:07:47;;;;;;;2.08;1.80;;;17.10;99.90;;;;;;5075913;28;20040;-75
2022/08/31 08:10:14;;;;;;;2.05;1.45;;;17.10;99.90;;;;;;5065126;28;20057;-75
2022/08/31 08:12:45;;;;;;;5.75;1.70;;;17.20;99.90;;;;;;5062284;28;20051;-72
2022/08/31 08:15:11;;;;;;;4.80;1.83;;;17.40;99.90;;;;;;5067660;28;20405;-74
2022/08/31 08:17:37;;;;;;;2.58;1.63;;;17.50;99.90;;;;;;5080655;28;20052;-76
2022/08/31 08:20:05;;;;;;;4.80;1.75;;;17.50;99.90;;;;;;5068757;28;20075;-73
2022/08/31 08:22:30;;;;;;;10.68;2.97;;;17.60;99.90;;;;;;5077338;28;20575;-72
2022/08/31 08:24:59;;;;;;;3.17;1.48;;;17.70;99.90;;;;;;5070241;28;20072;-73
2022/08/31 08:27:26;;;;;;;2.50;1.57;;;17.80;99.90;;;;;;5058674;28;20052;-72
2022/08/31 08:29:52;;;;;;;4.00;2.03;;;17.90;99.90;;;;;;5074142;28;20040;-72
2022/08/31 08:32:18;;;;;;;3.08;1.50;;;17.90;99.90;;;;;;5064775;28;20056;-69
2022/08/31 08:34:44;;;;;;;2.67;1.70;;;17.80;99.90;;;;;;5071182;28;20459;-69
2022/08/31 08:37:12;;;;;;;4.72;2.17;;;17.90;99.90;;;;;;5082938;28;20052;-70
2022/08/31 08:39:39;;;;;;;2.05;1.58;;;18.00;99.90;;;;;;5075440;28;20056;-69
2022/08/31 08:42:09;;;;;;;4.80;1.65;;;18.00;99.90;;;;;;5067800;28;20054;-70
2022/08/31 08:44:36;;;;;;;2.67;1.55;;;18.10;99.90;;;;;;5096819;28;20532;-70
2022/08/31 08:47:13;;;;;;;4.40;1.55;;;18.20;99.90;;;;;;5087434;28;20066;-73
2022/08/31 08:49:53;;;;;;;8.18;1.48;;;18.20;99.90;;;;;;5071402;28;20052;-74
2022/08/31 08:52:40;;;;;;;;;;;18.40;99.90;;;;;;5066922;28;20060;-69
2022/08/31 08:55:23;;;;;;;2.13;1.67;;;18.50;99.90;;;;;;5075483;28;19924;-70
2022/08/31 08:57:50;;;;;;;2.50;1.63;;;18.50;99.90;;;;;;5048460;28;20051;-70
2022/08/31 09:00:23;;;;;;;2.65;1.70;;;18.50;99.90;;;;;;5047533;28;20113;-70
2022/08/31 09:03:03;;;;;;;7.43;2.10;;;18.70;99.90;;;;;;5065245;28;20049;-71
2022/08/31 09:05:59;;;;;;;2.70;1.45;;;18.70;99.90;;;;;;5043125;28;20468;-71
2022/08/31 09:08:53;;;;;;;10.55;1.80;;;18.70;99.90;;;;;;5059213;28;20040;-72
2022/08/31 09:11:36;;;;;;;3.05;1.45;;;18.80;99.90;;;;;;5058280;28;20052;-70
2022/08/31 09:14:24;;;;;;;3.65;1.60;;;18.80;99.90;;;;;;5065650;28;20056;-72
2022/08/31 09:17:01;;;;;;;2.88;1.63;;;18.90;99.90;;;;;;5054084;28;20060;-70
2022/08/31 09:19:56;;;;;;;4.20;1.60;;;19.00;99.90;;;;;;5070733;28;20036;-71
2022/08/31 09:22:13;;;;;;;6.43;1.60;;;19.20;99.90;;;;;;5063374;28;20135;-72
2022/08/31 09:24:39;;;;;;;3.53;1.48;;;19.60;99.90;;;;;;5058018;28;20572;-70
2022/08/31 09:27:18;;;;;;;2.50;1.40;;;19.40;99.90;;;;;;5069069;28;20097;-70
2022/08/31 09:29:45;;;;;;;;;;;19.40;99.90;;;;;;5075246;28;20053;-70
2022/08/31 09:32:21;;;;;;;3.17;1.52;;;19.30;99.90;;;;;;5067691;28;19953;-70
2022/08/31 09:35:22;;;;;;;4.35;1.55;;;19.30;99.90;;;;;;5074889;28;20527;-70
2022/08/31 09:37:58;;;;;;;5.35;1.63;;;19.40;99.90;;;;;;5066344;28;20041;-71
2022/08/31 09:40:35;;;;;;;2.92;1.95;;;19.40;99.90;;;;;;5062206;28;20044;-71
2022/08/31 09:43:06;;;;;;;2.72;1.63;;;19.50;99.90;;;;;;5081095;28;20049;-70
2022/08/31 09:45:35;;;;;;;3.65;1.80;;;19.50;99.90;;;;;;5065887;28;20096;-71
2022/08/31 09:48:04;;;;;;;3.25;1.42;;;19.60;99.90;;;;;;5060691;28;20051;-70
2022/08/31 09:50:43;;;;;;;3.03;1.50;;;19.70;99.90;;;;;;5064535;28;20055;-70
2022/08/31 09:56:21;;;;;;;7.38;1.70;;;19.90;99.90;;;;;;5082796;28;20055;-70
2022/08/31 09:58:49;;;;;;;1.60;1.17;;;20.00;99.90;;;;;;5075110;28;20418;-70
2022/08/31 10:01:39;;;;;;;2.95;1.20;;;20.00;99.90;;;;;;5059173;28;20044;-70
2022/08/31 10:04:17;;;;;;;3.45;1.52;;;20.10;99.90;;;;;;5061224;28;20086;-70
2022/08/31 10:07:10;;;;;;;4.80;1.67;;;20.20;99.90;;;;;;5043191;28;20240;-70
2022/08/31 10:09:45;;;;;;;3.65;1.38;;;20.30;99.90;;;;;;5073419;28;20086;-70
2022/08/31 10:12:48;;;;;;;4.70;1.33;;;20.50;99.90;;;;;;5056181;28;20044;-72
2022/08/31 10:15:17;;;;;;;4.85;1.60;;;20.50;99.90;;;;;;5077837;28;20048;-72
2022/08/31 10:18:12;;;;;;;8.45;2.58;;;20.50;99.90;;;;;;5067440;28;20061;-70
2022/08/31 10:20:47;;;;;;;7.28;1.50;;;20.60;99.90;;;;;;5030445;28;20067;-71
2022/08/31 10:23:17;;;;;;;3.85;1.40;;;20.70;99.70;;;;;;5074936;28;20044;-71
2022/08/31 10:25:57;;;;;;;5.38;1.45;;;20.80;98.70;;;;;;5069253;28;20044;-71
2022/08/31 10:28:49;;;;;;;3.80;1.30;;;20.80;98.90;;;;;;5076497;28;20041;-71
2022/08/31 10:31:22;;;;;;;3.47;1.73;;;20.80;98.40;;;;;;5077633;28;20490;-71
2022/08/31 10:36:41;;;;;;;3.63;1.52;;;20.80;98.50;;;;;;5089742;28;20047;-71
2022/08/31 10:39:24;;;;;;;1.50;1.40;;;20.80;98.40;;;;;;5076914;28;20053;-71
2022/08/31 10:41:50;;;;;;;5.22;1.20;;;20.70;98.60;;;;;;5069136;28;20074;-71
2022/08/31 10:44:56;;;;;;;9.00;1.60;;;20.80;98.40;;;;;;5076719;28;20500;-71
2022/08/31 10:47:28;;;;;;;2.00;1.50;;;20.90;97.20;;;;;;5085794;28;20055;-70
2022/08/31 10:49:57;;;;;;;4.32;1.55;;;20.90;97.30;;;;;;5080792;28;20048;-70
2022/08/31 10:52:31;;;;;;;4.60;1.43;;;21.00;97.10;;;;;;5071443;28;20051;-70
2022/08/31 10:55:27;;;;;;;2.05;1.40;;;21.10;97.60;;;;;;5076432;28;20045;-69
2022/08/31 10:58:31;;;;;;;1.60;1.15;;;21.10;97.40;;;;;;5068865;28;20044;-72
2022/08/31 11:01:05;;;;;;;5.70;1.55;;;21.20;95.90;;;;;;5038840;28;20429;-73
2022/08/31 11:03:55;;;;;;;1.55;1.40;;;21.20;96.60;;;;;;5064733;28;20044;-76
2022/08/31 11:06:39;;;;;;;6.13;1.50;;;21.20;97.00;;;;;;5065246;28;20093;-72
2022/08/31 11:09:14;;;;;;;4.45;1.70;;;21.30;96.70;;;;;;5087438;28;20040;-73
2022/08/31 11:12:05;;;;;;;25.42;1.83;;;21.40;96.10;;;;;;5046319;28;20089;-73
2022/08/31 11:14:57;;;;;;;2.35;1.45;;;22.20;97.30;;;;;;5070756;28;20052;-73
2022/08/31 11:17:41;;;;;;;5.78;1.27;;;21.50;96.90;;;;;;5056297;28;20126;-73
2022/08/31 11:20:19;;;;;;;3.22;1.25;;;21.50;96.40;;;;;;5064203;28;20048;-73
2022/08/31 11:23:18;;;;;;;1.52;1.10;;;21.50;97.90;;;;;;5065314;28;20072;-72
2022/08/31 11:25:59;;;;;;;3.10;1.17;;;21.70;96.10;;;;;;5065902;28;20522;-73
2022/08/31 11:28:33;;;;;;;3.85;1.63;;;21.80;95.60;;;;;;5059982;28;20055;-72
2022/08/31 11:31:06;;;;;;;5.63;1.67;;;21.80;95.50;;;;;;5065685;28;20135;-73
2022/08/31 11:33:31;;;;;;;3.70;1.33;;;21.90;95.00;;;;;;5079585;28;20055;-72
2022/08/31 11:36:10;;;;;;;2.85;1.25;;;22.00;94.90;;;;;;5080620;28;20123;-72
2022/08/31 11:38:56;;;;;;;1.27;1.10;;;21.90;94.70;;;;;;5077286;28;20575;-74
2022/08/31 11:41:46;;;;;;;3.42;1.13;;;22.00;95.50;;;;;;5065435;28;20055;-74
2022/08/31 11:44:38;;;;;;;3.53;1.35;;;22.00;95.10;;;;;;5075050;28;20032;-74
2022/08/31 11:47:25;;;;;;;1.67;1.20;;;22.00;95.30;;;;;;5083658;28;20115;-73
2022/08/31 11:49:54;;;;;;;3.30;1.40;;;22.00;94.60;;;;;;5074428;28;20113;-73
2022/08/31 11:52:21;;;;;;;1.27;1.10;;;22.10;94.80;;;;;;5070482;28;20067;-74
2022/08/31 11:54:49;;;;;;;5.03;1.00;;;22.10;94.30;;;;;;5076161;28;20052;-73
2022/08/31 11:57:22;;;;;;;1.60;0.90;;;22.20;95.40;;;;;;5071647;28;20498;-74
2022/08/31 11:59:49;;;;;;;1.38;1.27;;;22.30;94.20;;;;;;5077761;28;20083;-74
2022/08/31 12:02:24;;;;;;;1.95;1.23;;;22.40;95.00;;;;;;5054175;28;20055;-73
2022/08/31 12:04:57;;;;;;;2.80;1.67;;;22.40;93.60;;;;;;5064978;28;20054;-74
2022/08/31 12:07:35;;;;;;;3.03;1.10;;;22.50;93.50;;;;;;5077696;28;20059;-74
2022/08/31 12:10:12;;;;;;;5.88;1.88;;;22.60;93.50;;;;;;5073901;28;20555;-73
2022/08/31 12:12:50;;;;;;;2.88;1.10;;;22.60;92.70;;;;;;5067644;28;20655;-73
2022/08/31 12:15:47;;;;;;;4.15;1.25;;;22.60;92.70;;;;;;5058948;28;20037;-73
2022/08/31 12:18:16;;;;;;;2.50;1.30;;;22.70;92.50;;;;;;5063160;28;20052;-74
2022/08/31 12:24:03;;;;;;;5.47;1.48;;;22.80;93.50;;;;;;5044254;28;20137;-74
2022/08/31 12:26:36;;;;;;;2.92;1.33;;;22.90;93.10;;;;;;5083048;28;20456;-74
2022/08/31 12:29:18;;;;;;;2.08;1.30;;;23.10;92.80;;;;;;5073715;28;20637;-74
2022/08/31 12:32:35;;;;;;;1.88;1.30;;;23.10;92.30;;;;;;5061952;28;20040;-73
2022/08/31 12:35:24;;;;;;;4.22;1.30;;;22.90;91.80;;;;;;5062311;28;20044;-67
2022/08/31 12:38:05;;;;;;;5.75;1.10;;;23.00;91.80;;;;;;5050612;28;20055;-70
2022/08/31 12:40:45;;;;;;;2.55;1.40;;;23.00;91.70;;;;;;5072531;28;20040;-69
2022/08/31 12:43:18;;;;;;;1.73;1.40;;;23.10;91.20;;;;;;5049915;28;20055;-66
2022/08/31 12:46:14;;;;;;;2.50;1.60;;;23.20;91.70;;;;;;5071228;28;20071;-71
2022/08/31 12:48:46;;;;;;;4.85;1.33;;;23.20;91.90;;;;;;5045043;28;20684;-71
2022/08/31 12:51:38;;;;;;;3.53;1.20;;;23.40;91.20;;;;;;5083400;28;20040;-70
2022/08/31 12:54:13;;;;;;;1.90;1.40;;;23.50;91.50;;;;;;5062008;28;20498;-70
2022/08/31 12:57:12;;;;;;;6.10;1.30;;;23.50;90.90;;;;;;5068947;28;20055;-71
2022/08/31 12:59:46;;;;;;;5.88;1.58;;;23.60;90.60;;;;;;5071600;28;20051;-71
2022/08/31 13:02:13;;;;;;;2.28;1.20;;;23.80;88.70;;;;;;5065841;28;20062;-70
2022/08/31 13:04:46;;;;;;;4.03;0.85;;;23.90;88.90;;;;;;5059673;28;20056;-70
2022/08/31 13:07:29;;;;;;;2.78;0.90;;;23.80;88.70;;;;;;5056591;28;20551;-70
2022/08/31 13:10:14;;;;;;;2.05;0.95;;;23.90;89.20;;;;;;5060501;28;20045;-74
2022/08/31 13:12:52;;;;;;;2.25;0.82;;;24.20;90.00;;;;;;5047624;28;20497;-72
2022/08/31 13:15:25;;;;;;;2.38;1.00;;;24.30;89.60;;;;;;5076067;28;20052;-70
2022/08/31 13:17:52;;;;;;;3.13;0.90;;;24.40;89.80;;;;;;5081849;28;20052;-70
2022/08/31 13:20:20;;;;;;;1.48;0.88;;;24.40;90.00;;;;;;5080119;28;20071;-70
2022/08/31 13:22:55;;;;;;;2.72;1.13;;;24.60;89.40;;;;;;5083737;28;20058;-70
2022/08/31 13:25:34;;;;;;;1.58;0.90;;;24.60;90.10;;;;;;5090836;28;20052;-70
2022/08/31 13:28:33;;;;;;;0.95;0.90;;;24.70;88.30;;;;;;5072404;28;20052;-70
2022/08/31 13:31:06;;;;;;;1.00;0.90;;;24.80;87.30;;;;;;5079531;28;20334;-70